METAR Data
IDs: Format: Raw Decoded Include TAF

Data at: 0112 UTC 25 Mar 2019

KFXY 250055Z AUTO 02006KT 10SM OVC042 08/05 A3013 RMK AO2
KFXY 250035Z AUTO 03007KT 10SM BKN044 OVC050 08/05 A3012 RMK AO2
KFXY 250015Z AUTO 02007KT 10SM BKN055 OVC100 08/05 A3011 RMK AO2
KFXY 242355Z AUTO 03009KT 10SM SCT065 SCT075 OVC100 08/04 A3010 RMK AO2
KFXY 242335Z AUTO 03007KT 10SM SCT055 BKN065 BKN100 08/05 A3010 RMK AO2
KFXY 242315Z AUTO 03007KT 10SM BKN055 OVC090 09/05 A3009 RMK AO2
KFXY 242255Z AUTO 04011KT 10SM SCT033 SCT040 OVC055 10/05 A3008 RMK AO2
KFXY 242235Z AUTO 04010G16KT 10SM BKN030 OVC038 10/05 A3008 RMK AO2
KFXY 242215Z AUTO 04006KT 10SM BKN028 BKN032 OVC038 10/05 A3008 RMK AO2
KFXY 242155Z AUTO 06008KT 10SM BKN030 BKN037 OVC043 11/05 A3007 RMK AO2
KFXY 242135Z AUTO 06008KT 040V100 10SM OVC030 11/05 A3007 RMK AO2
KFXY 242115Z AUTO 06006KT 10SM BKN028 OVC033 11/06 A3006 RMK AO2
KFXY 242055Z AUTO 05008KT 10SM SCT022 BKN030 OVC085 11/06 A3006 RMK AO2
KFXY 242035Z AUTO 05009G15KT 10SM SCT020 BKN025 OVC030 11/06 A3005 RMK AO2
KFXY 242015Z AUTO 06008KT 10SM BKN018 OVC028 11/06 A3005 RMK AO2
KFXY 241955Z AUTO 06009KT 10SM BKN018 BKN024 OVC045 10/07 A3005 RMK AO2
KFXY 241935Z AUTO 05010G14KT 10SM BKN018 OVC024 10/07 A3005 RMK AO2
KFXY 241915Z AUTO 05009KT 10SM OVC016 10/07 A3005 RMK AO2
KFXY 241855Z AUTO 04009KT 10SM BKN016 OVC033 10/07 A3005 RMK AO2
KFXY 241835Z AUTO 04009KT 10SM BKN018 BKN024 OVC032 10/06 A3006 RMK AO2
KFXY 241815Z AUTO 05008KT 10SM OVC018 09/06 A3006 RMK AO2
KFXY 241755Z AUTO 05008KT 10SM SCT020 BKN035 OVC046 09/06 A3006 RMK AO2
KFXY 241735Z AUTO 06007KT 10SM OVC035 08/06 A3005 RMK AO2
KFXY 241715Z AUTO 06006KT 7SM SCT009 OVC033 07/06 A3006 RMK AO2
KFXY 241655Z AUTO 05008KT 7SM BKN009 BKN031 OVC039 07/06 A3006 RMK AO2
KFXY 241635Z AUTO 04009KT 5SM BR OVC009 06/06 A3006 RMK AO2
KFXY 241615Z AUTO 04009KT 5SM BR OVC009 06/06 A3006 RMK AO2
KFXY 241555Z AUTO 05008KT 5SM BR BKN004 OVC012 06/05 A3006 RMK AO2
KFXY 241535Z AUTO 05007KT 4SM BR OVC004 05/05 A3005 RMK AO2
KFXY 241515Z AUTO 05004KT 4SM BR OVC004 05/05 A3005 RMK AO2
KFXY 241455Z AUTO 06004KT 3SM BR OVC004 05/05 A3005 RMK AO2
KFXY 241435Z AUTO 05003KT 3SM BR OVC002 04/04 A3006 RMK AO2
KFXY 241415Z AUTO 05005KT 3SM BR OVC002 04/04 A3006 RMK AO2
KFXY 241355Z AUTO 05004KT 3SM BR OVC002 04/04 A3006 RMK AO2
KFXY 241335Z AUTO 06004KT 2 1/2SM BR OVC002 04/04 A3006 RMK AO2
KFXY 241315Z AUTO 06004KT 2 1/2SM BR OVC004 05/05 A3005 RMK AO2
KFXY 241255Z AUTO 09005KT 5SM BR OVC004 05/04 A3004 RMK AO2
KFXY 241235Z AUTO 08004KT 7SM OVC004 04/04 A3004 RMK AO2
KFXY 241215Z AUTO 10003KT 7SM SCT006 OVC047 04/04 A3004 RMK AO2
KFXY 241155Z AUTO 08004KT 7SM -DZ SCT021 SCT034 OVC047 04/04 A3003 RMK AO2
KFXY 241135Z AUTO 00000KT 7SM DZ BKN019 BKN027 OVC041 04/04 A3004 RMK AO2
KFXY 241115Z AUTO 08003KT 10SM SCT013 BKN019 OVC035 05/04 A3004 RMK AO2
KFXY 241055Z AUTO 12004KT 10SM OVC019 05/04 A3004 RMK AO2
KFXY 241035Z AUTO 11004KT 10SM OVC019 05/05 A3003 RMK AO2
KFXY 241015Z AUTO 11004KT 7SM OVC019 05/04 A3004 RMK AO2
KFXY 240955Z AUTO 12005KT 10SM OVC019 05/04 A3004 RMK AO2
KFXY 240935Z AUTO 11005KT 10SM OVC017 05/03 A3004 RMK AO2
KFXY 240915Z AUTO 12005KT 10SM DZ OVC017 05/03 A3004 RMK AO2
KFXY 240855Z AUTO 12006KT 10SM RA BKN015 OVC019 05/03 A3005 RMK AO2
KFXY 240835Z AUTO 12006KT 10SM RA SCT019 OVC048 05/03 A3006 RMK AO2
KFXY 240815Z AUTO 12006KT 10SM -RA SCT039 BKN048 OVC055 05/03 A3006 RMK AO2
KFXY 240755Z AUTO 13007KT 10SM RA BKN037 OVC048 06/02 A3007 RMK AO2
KFXY 240735Z AUTO 11006KT 10SM OVC037 06/02 A3007 RMK AO2
KFXY 240715Z AUTO 10004KT 10SM BKN039 OVC075 06/02 A3007 RMK AO2
KFXY 240655Z AUTO 11007KT 10SM BKN037 BKN042 OVC075 06/02 A3007 RMK AO2
KFXY 240635Z AUTO 11006KT 10SM SCT028 OVC035 06/02 A3008 RMK AO2
KFXY 240615Z AUTO 10003KT 10SM OVC031 06/02 A3008 RMK AO2
KFXY 240555Z AUTO 09003KT 10SM SCT028 OVC080 06/02 A3009 RMK AO2
KFXY 240535Z AUTO 09003KT 10SM OVC080 06/02 A3009 RMK AO2
KFXY 240515Z AUTO 00000KT 10SM BKN080 OVC090 06/02 A3009 RMK AO2
KFXY 240455Z AUTO 11004KT 10SM OVC080 06/02 A3009 RMK AO2
KFXY 240435Z AUTO 11005KT 10SM OVC090 07/02 A3009 RMK AO2
KFXY 240415Z AUTO 12006KT 10SM OVC090 07/02 A3009 RMK AO2
KFXY 240355Z AUTO 12006KT 10SM OVC090 07/02 A3009 RMK AO2
KFXY 240335Z AUTO 12005KT 10SM OVC090 07/02 A3009 RMK AO2
KFXY 240315Z AUTO 12005KT 10SM OVC100 07/02 A3009 RMK AO2
KFXY 240255Z AUTO 12007KT 10SM SCT070 OVC100 07/02 A3009 RMK AO2
KFXY 240235Z AUTO 12006KT 10SM SCT070 OVC090 07/02 A3009 RMK AO2
KFXY 240215Z AUTO 12007KT 10SM OVC090 07/02 A3010 RMK AO2
KFXY 240155Z AUTO 13008KT 10SM OVC090 07/02 A3010 RMK AO2
KFXY 240135Z AUTO 12004KT 10SM OVC090 07/02 A3010 RMK AO2
KFXY 240115Z AUTO 13006KT 10SM OVC090 07/03 A3010 RMK AO2
KFXY 240055Z AUTO 13004KT 10SM OVC090 08/03 A3010 RMK AO2
KFXY 240035Z AUTO 14005KT 10SM BKN090 OVC110 08/03 A3010 RMK AO2
KFXY 240015Z AUTO 12005KT 10SM BKN100 08/03 A3011 RMK AO2
KFXY 232355Z AUTO 12006KT 10SM SCT070 BKN090 09/03 A3012 RMK AO2
KFXY 232335Z AUTO 13004KT 10SM SCT070 OVC080 10/03 A3012 RMK AO2
KFXY 232315Z AUTO 12005KT 10SM BKN090 10/02 A3012 RMK AO2
KFXY 232255Z AUTO 10005KT 10SM SCT110 10/02 A3011 RMK AO2
KFXY 232235Z AUTO 14006KT 10SM BKN110 11/02 A3013 RMK AO2
KFXY 232215Z AUTO 14007KT 10SM SCT120 11/02 A3013 RMK AO2
KFXY 232155Z AUTO 15010KT 10SM CLR 11/02 A3013 RMK AO2
KFXY 232135Z AUTO 16009KT 10SM CLR 11/01 A3013 RMK AO2
KFXY 232115Z AUTO 14007KT 10SM CLR 11/02 A3013 RMK AO2
KFXY 232055Z AUTO 16007KT 120V190 10SM CLR 11/02 A3014 RMK AO2
KFXY 232035Z AUTO 13009KT 10SM CLR 12/02 A3014 RMK AO2
KFXY 232015Z AUTO 16007KT 10SM CLR 11/01 A3014 RMK AO2
KFXY 231955Z AUTO 16009KT 10SM CLR 12/01 A3015 RMK AO2
KFXY 231935Z AUTO 18009G17KT 10SM CLR 12/01 A3017 RMK AO2
KFXY 231915Z AUTO 20008G14KT 10SM CLR 11/01 A3018 RMK AO2
KFXY 231855Z AUTO 18009KT 10SM CLR 11/01 A3018 RMK AO2
KFXY 231835Z AUTO 15007KT 10SM CLR 10/01 A3018 RMK AO2
KFXY 231815Z AUTO 18008KT 10SM CLR 10/01 A3019 RMK AO2
KFXY 231755Z AUTO 16008KT 10SM CLR 10/01 A3019 RMK AO2
KFXY 231735Z AUTO 17011KT 10SM CLR 09/02 A3019 RMK AO2
KFXY 231715Z AUTO 16008KT 10SM CLR 08/02 A3020 RMK AO2
KFXY 231655Z AUTO 17010KT 10SM CLR 08/02 A3020 RMK AO2
KFXY 231635Z AUTO 16009KT 10SM CLR 07/02 A3021 RMK AO2
KFXY 231615Z AUTO 16008KT 10SM CLR 07/02 A3021 RMK AO2
KFXY 231555Z AUTO 15008KT 10SM CLR 06/01 A3021 RMK AO2
KFXY 231535Z AUTO 16006KT 10SM CLR 06/01 A3022 RMK AO2
KFXY 231515Z AUTO 17007KT 10SM CLR 05/00 A3022 RMK AO2
KFXY 231455Z AUTO 14005KT 10SM CLR 05/00 A3021 RMK AO2
KFXY 231435Z AUTO 14005KT 10SM CLR 03/00 A3021 RMK AO2
KFXY 231415Z AUTO 13004KT 10SM CLR 02/00 A3021 RMK AO2
KFXY 231355Z AUTO 12004KT 10SM CLR 01/00 A3022 RMK AO2
KFXY 231335Z AUTO 13004KT 10SM CLR 01/00 A3022 RMK AO2
KFXY 231315Z AUTO 00000KT 10SM CLR 00/00 A3023 RMK AO2